Time;durP1;ratioP1;P1;durP2;ratioP2;P2;SDS_P1;SDS_P2;PMS_P1;PMS_P2;Temp;Humidity;BMP_temperature;BMP_pressure;BME280_temperature;BME280_humidity;BME280_pressure;Samples;Min_cycle;Max_cycle;Signal;HPM_P1;HPM_P2
2022/12/03 00:01:02;;;;;;;16.60;11.10;;;3.10;99.90;;;;;;5020055;28;20460;-83
2022/12/03 00:03:34;;;;;;;14.93;10.03;;;3.10;99.90;;;;;;5003054;28;20540;-84
2022/12/03 00:06:01;;;;;;;16.13;11.10;;;3.10;99.90;;;;;;4999524;28;20526;-83
2022/12/03 00:08:28;;;;;;;17.40;10.90;;;3.20;99.90;;;;;;5014253;28;20428;-82
2022/12/03 00:10:57;;;;;;;15.73;10.70;;;3.20;99.90;;;;;;5019187;28;20425;-81
2022/12/03 00:13:27;;;;;;;16.17;10.97;;;3.20;99.90;;;;;;5004126;28;20836;-81
2022/12/03 00:15:56;;;;;;;18.30;11.53;;;3.30;99.90;;;;;;5005714;28;20540;-83
2022/12/03 00:18:23;;;;;;;21.30;10.70;;;3.20;99.90;;;;;;5016801;28;20472;-82
2022/12/03 00:20:51;;;;;;;15.97;10.70;;;3.20;99.90;;;;;;5018630;28;20449;-84
2022/12/03 00:23:18;;;;;;;15.60;10.00;;;3.30;99.90;;;;;;5007192;28;20463;-82
2022/12/03 00:25:45;;;;;;;18.13;11.13;;;3.40;99.90;;;;;;4998897;28;20860;-82
2022/12/03 00:28:12;;;;;;;16.97;10.47;;;3.40;99.90;;;;;;5006692;28;20524;-81
2022/12/03 00:30:38;;;;;;;15.90;10.70;;;3.40;99.90;;;;;;5000623;28;20517;-82
2022/12/03 00:33:05;;;;;;;18.70;11.17;;;3.30;99.90;;;;;;5006282;28;20460;-82
2022/12/03 00:35:32;;;;;;;16.30;10.87;;;3.30;99.90;;;;;;5017755;28;20456;-83
2022/12/03 00:38:03;;;;;;;14.77;10.30;;;3.30;99.90;;;;;;5014146;28;20428;-82
2022/12/03 00:40:33;;;;;;;18.27;10.90;;;3.30;99.90;;;;;;5008477;28;20479;-83
2022/12/03 00:43:02;;;;;;;14.03;9.00;;;3.30;99.90;;;;;;5016830;28;21064;-82
2022/12/03 00:45:29;;;;;;;13.77;9.27;;;3.40;99.90;;;;;;5017254;28;20496;-83
2022/12/03 00:47:56;;;;;;;15.27;10.37;;;3.40;99.90;;;;;;5016862;28;20454;-82
2022/12/03 00:50:23;;;;;;;17.33;10.50;;;3.30;99.90;;;;;;5016899;28;20450;-82
2022/12/03 00:52:51;;;;;;;14.60;9.50;;;3.30;99.90;;;;;;5003945;28;21005;-82
2022/12/03 00:55:19;;;;;;;15.77;10.60;;;3.30;99.90;;;;;;5016538;28;20454;-81
2022/12/03 00:57:48;;;;;;;14.00;9.70;;;3.30;99.90;;;;;;5013695;28;21179;-82
2022/12/03 01:00:16;;;;;;;13.00;10.20;;;3.30;99.90;;;;;;4997366;28;20433;-82
2022/12/03 01:02:43;;;;;;;15.67;10.60;;;3.30;99.90;;;;;;5002802;28;20478;-82
2022/12/03 01:05:10;;;;;;;17.90;11.00;;;3.40;99.90;;;;;;5004103;28;20522;-81
2022/12/03 01:07:36;;;;;;;14.33;8.80;;;3.40;99.90;;;;;;5004039;28;20461;-84
2022/12/03 01:10:03;;;;;;;11.33;7.83;;;3.40;99.90;;;;;;5008365;28;20839;-80
2022/12/03 01:12:32;;;;;;;15.63;12.23;;;3.40;99.90;;;;;;4997249;28;20444;-81
2022/12/03 01:14:58;;;;;;;13.93;9.10;;;3.40;99.90;;;;;;5001256;28;20529;-81
2022/12/03 01:17:25;;;;;;;14.60;9.83;;;3.50;99.90;;;;;;5014960;28;20456;-82
2022/12/03 01:19:52;;;;;;;17.97;12.37;;;3.50;99.90;;;;;;5003531;28;20455;-81
2022/12/03 01:22:19;;;;;;;13.70;9.50;;;3.50;99.90;;;;;;5017083;28;20473;-84
2022/12/03 01:24:46;;;;;;;16.73;10.07;;;3.40;99.90;;;;;;5015674;28;20865;-83
2022/12/03 01:27:13;;;;;;;17.53;9.73;;;3.40;99.90;;;;;;5005571;28;20538;-82
2022/12/03 01:29:41;;;;;;;15.23;9.33;;;3.40;99.90;;;;;;4997162;28;20989;-82
2022/12/03 01:32:18;;;;;;;15.20;10.53;;;3.50;99.90;;;;;;5015292;28;20456;-81
2022/12/03 01:34:45;;;;;;;18.10;9.60;;;3.40;99.90;;;;;;5016673;28;20449;-85
2022/12/03 01:37:12;;;;;;;16.20;10.67;;;3.50;99.90;;;;;;4999974;28;21038;-83
2022/12/03 01:39:39;;;;;;;19.40;11.90;;;3.50;99.90;;;;;;4997358;28;20528;-82
2022/12/03 01:42:08;;;;;;;17.67;11.87;;;3.50;99.90;;;;;;5000093;28;20462;-83
2022/12/03 01:44:36;;;;;;;15.80;9.57;;;3.50;99.90;;;;;;5001655;28;20605;-82
2022/12/03 01:47:10;;;;;;;17.70;10.60;;;3.50;99.90;;;;;;5014091;28;20455;-83
2022/12/03 01:49:42;;;;;;;19.93;11.70;;;3.50;99.90;;;;;;5002579;28;20506;-83
2022/12/03 01:52:12;;;;;;;15.33;10.33;;;3.50;99.90;;;;;;5001392;28;20512;-82
2022/12/03 01:54:42;;;;;;;16.20;11.50;;;3.40;99.90;;;;;;5002075;28;20514;-83
2022/12/03 01:57:19;;;;;;;22.40;12.53;;;3.50;99.90;;;;;;5011692;28;20469;-82
2022/12/03 01:59:47;;;;;;;18.87;11.20;;;3.40;99.90;;;;;;5007800;28;20518;-81
2022/12/03 02:02:20;;;;;;;16.43;10.57;;;3.40;99.90;;;;;;5012692;28;20530;-84
2022/12/03 02:04:47;;;;;;;21.67;12.57;;;3.40;99.90;;;;;;5003145;28;20529;-84
2022/12/03 02:07:25;;;;;;;20.77;12.63;;;3.40;99.90;;;;;;5007265;28;20479;-83
2022/12/03 02:09:53;;;;;;;18.57;12.40;;;3.40;99.90;;;;;;5014766;28;20540;-83
2022/12/03 02:12:25;;;;;;;16.77;11.30;;;3.40;99.90;;;;;;5005246;28;20566;-85
2022/12/03 02:14:52;;;;;;;18.90;10.93;;;3.40;99.90;;;;;;5002177;28;20437;-84
2022/12/03 02:17:20;;;;;;;17.77;11.20;;;3.30;99.90;;;;;;5012436;28;20536;-83
2022/12/03 02:19:48;;;;;;;22.20;12.47;;;3.30;99.90;;;;;;5021812;28;20537;-84
2022/12/03 02:22:25;;;;;;;19.07;11.90;;;3.30;99.90;;;;;;5001890;28;20537;-83
2022/12/03 02:24:56;;;;;;;19.70;10.97;;;3.30;99.90;;;;;;5000971;28;20858;-83
2022/12/03 02:27:24;;;;;;;18.37;11.90;;;3.30;99.90;;;;;;5013706;28;20454;-84
2022/12/03 02:29:51;;;;;;;20.10;11.27;;;3.30;99.90;;;;;;5000578;28;20541;-82
2022/12/03 02:32:22;;;;;;;18.90;11.87;;;3.30;99.90;;;;;;5003796;28;20640;-83
2022/12/03 02:34:49;;;;;;;19.40;11.30;;;3.30;99.90;;;;;;5020339;28;20524;-84
2022/12/03 02:37:20;;;;;;;26.90;14.00;;;3.20;99.90;;;;;;5015038;28;20454;-83
2022/12/03 02:39:50;;;;;;;23.52;12.65;;;3.10;99.90;;;;;;5006294;28;20435;-83
2022/12/03 02:42:37;;;;;;;19.90;12.00;;;3.10;99.90;;;;;;5002987;28;20294;-83
2022/12/03 02:45:09;;;;;;;22.90;13.07;;;3.10;99.90;;;;;;5001584;28;20592;-81
2022/12/03 02:47:41;;;;;;;17.40;10.67;;;3.20;99.90;;;;;;5004671;28;20532;-81
2022/12/03 02:50:11;;;;;;;21.20;12.23;;;3.10;99.90;;;;;;5016007;28;20534;-82
2022/12/03 02:52:38;;;;;;;20.97;12.73;;;3.00;99.90;;;;;;5014026;28;20561;-84
2022/12/03 02:55:07;;;;;;;21.53;12.27;;;3.00;99.90;;;;;;5011940;28;20436;-84
2022/12/03 02:57:34;;;;;;;18.63;11.97;;;3.00;99.90;;;;;;5012191;28;20538;-83
2022/12/03 03:00:01;;;;;;;19.97;12.00;;;3.00;99.90;;;;;;5015995;28;20877;-84
2022/12/03 03:02:29;;;;;;;22.30;11.87;;;3.10;99.90;;;;;;5002807;28;20536;-84
2022/12/03 03:04:57;;;;;;;19.03;12.30;;;3.20;99.90;;;;;;5009607;28;20481;-84
2022/12/03 03:07:24;;;;;;;22.00;11.70;;;3.10;99.90;;;;;;5019429;28;20449;-84
2022/12/03 03:09:51;;;;;;;21.10;11.97;;;3.10;99.90;;;;;;5011987;28;20425;-82
2022/12/03 03:12:18;;;;;;;23.20;13.57;;;3.10;99.90;;;;;;5015115;28;20471;-84
2022/12/03 03:14:45;;;;;;;21.77;13.40;;;3.20;99.90;;;;;;5006022;28;20458;-83
2022/12/03 03:17:12;;;;;;;19.33;11.33;;;3.10;99.90;;;;;;5003457;28;20929;-84
2022/12/03 03:19:40;;;;;;;27.40;13.60;;;3.20;99.90;;;;;;5008173;28;20466;-81
2022/12/03 03:22:09;;;;;;;26.33;13.73;;;3.20;99.90;;;;;;4999821;28;20425;-82
2022/12/03 03:24:36;;;;;;;27.20;13.97;;;3.10;99.90;;;;;;5000927;28;20425;-82
2022/12/03 03:27:02;;;;;;;22.30;12.50;;;3.10;99.90;;;;;;5007450;28;20486;-83
2022/12/03 03:29:31;;;;;;;21.30;12.07;;;3.10;99.90;;;;;;5010405;28;20457;-81
2022/12/03 03:31:58;;;;;;;26.97;13.60;;;3.00;99.90;;;;;;5019089;28;20838;-82
2022/12/03 03:34:25;;;;;;;22.77;12.53;;;2.90;99.90;;;;;;5000845;28;20841;-83
2022/12/03 03:36:54;;;;;;;27.80;14.47;;;3.00;99.90;;;;;;5000603;28;20453;-83
2022/12/03 03:39:20;;;;;;;23.00;12.37;;;3.00;99.90;;;;;;5002982;28;20435;-83
2022/12/03 03:41:47;;;;;;;23.20;13.17;;;3.10;99.90;;;;;;4999279;28;20535;-84
2022/12/03 03:44:14;;;;;;;24.70;12.63;;;3.10;99.90;;;;;;5011338;28;20468;-82
2022/12/03 03:46:42;;;;;;;26.43;14.20;;;3.00;99.90;;;;;;5018624;28;20579;-84
2022/12/03 03:49:10;;;;;;;25.87;12.90;;;2.90;99.90;;;;;;5012231;28;20829;-81
2022/12/03 03:51:38;;;;;;;25.50;13.77;;;2.90;99.90;;;;;;5014262;28;20437;-83
2022/12/03 03:54:07;;;;;;;24.80;11.80;;;3.00;99.90;;;;;;5010434;28;20477;-83
2022/12/03 03:56:35;;;;;;;22.60;12.77;;;2.90;99.90;;;;;;5005762;28;20591;-82
2022/12/03 03:59:02;;;;;;;27.90;12.80;;;3.00;99.90;;;;;;5013584;28;20478;-83
2022/12/03 04:01:29;;;;;;;26.53;14.03;;;3.00;99.90;;;;;;5006472;28;20970;-82
2022/12/03 04:03:58;;;;;;;25.77;13.30;;;3.00;99.90;;;;;;5017897;28;20533;-82
2022/12/03 04:06:25;;;;;;;23.87;12.63;;;3.00;99.90;;;;;;5012454;28;20478;-81
2022/12/03 04:08:52;;;;;;;26.80;14.30;;;3.10;99.90;;;;;;5001241;28;20454;-82
2022/12/03 04:14:04;;;;;;;24.63;13.10;;;3.00;99.90;;;;;;5021336;28;20453;-81
2022/12/03 04:16:31;;;;;;;28.23;13.17;;;3.10;99.90;;;;;;5015780;28;20454;-84
2022/12/03 04:18:58;;;;;;;30.87;14.87;;;3.10;99.90;;;;;;5017789;28;20453;-81
2022/12/03 04:24:10;;;;;;;34.37;14.67;;;3.10;99.90;;;;;;5019298;28;20460;-82
2022/12/03 04:29:23;;;;;;;24.57;12.10;;;3.10;99.90;;;;;;5010434;28;20534;-84
2022/12/03 04:37:18;;;;;;;37.57;14.83;;;3.10;99.90;;;;;;5007574;28;20471;-87
2022/12/03 04:39:45;;;;;;;23.87;14.30;;;3.00;99.90;;;;;;5001178;28;20468;-87
2022/12/03 04:42:13;;;;;;;25.83;13.60;;;3.00;99.90;;;;;;5004220;28;21210;-82
2022/12/03 04:44:40;;;;;;;26.30;11.47;;;2.90;99.90;;;;;;5002610;28;20484;-85
2022/12/03 04:47:09;;;;;;;24.47;12.33;;;2.90;99.90;;;;;;5004235;28;20480;-84
2022/12/03 04:49:38;;;;;;;31.33;14.07;;;2.90;99.90;;;;;;5003897;28;20474;-84
2022/12/03 04:52:05;;;;;;;27.30;12.60;;;2.80;99.90;;;;;;5004075;28;20550;-84
2022/12/03 04:54:32;;;;;;;34.37;13.77;;;2.70;99.90;;;;;;5005835;28;20294;-85
2022/12/03 04:57:07;;;;;;;28.30;13.47;;;2.80;99.90;;;;;;5003859;28;20526;-83
2022/12/03 04:59:36;;;;;;;26.43;13.50;;;2.90;99.90;;;;;;5004631;28;20450;-85
2022/12/03 05:02:04;;;;;;;27.57;13.63;;;2.90;99.90;;;;;;5001880;28;20460;-87
2022/12/03 05:04:31;;;;;;;28.67;12.90;;;2.90;99.90;;;;;;5006164;28;20564;-86
2022/12/03 05:06:58;;;;;;;26.80;12.90;;;2.90;99.90;;;;;;5017354;28;20547;-85
2022/12/03 05:09:25;;;;;;;29.33;13.37;;;2.90;99.90;;;;;;5002084;28;20458;-85
2022/12/03 05:11:51;;;;;;;23.87;12.80;;;2.80;99.90;;;;;;5000432;28;21033;-83
2022/12/03 05:14:18;;;;;;;25.10;13.70;;;2.80;99.90;;;;;;4984384;28;20542;-84
2022/12/03 05:16:46;;;;;;;29.43;13.07;;;2.80;99.90;;;;;;4996953;28;20537;-84
2022/12/03 05:19:13;;;;;;;32.13;14.10;;;2.80;99.90;;;;;;4997082;28;20435;-84
2022/12/03 05:21:39;;;;;;;27.47;13.30;;;2.90;99.90;;;;;;4997483;28;20845;-84
2022/12/03 05:24:06;;;;;;;28.23;12.33;;;2.90;99.90;;;;;;4997043;28;20470;-85
2022/12/03 05:26:33;;;;;;;31.97;13.50;;;2.70;99.90;;;;;;4996017;28;20226;-85
2022/12/03 05:29:00;;;;;;;29.13;15.03;;;2.70;99.90;;;;;;4996160;28;20459;-84
2022/12/03 05:31:27;;;;;;;26.38;13.05;;;2.60;99.90;;;;;;4996270;28;20463;-85
2022/12/03 05:33:55;;;;;;;34.43;13.70;;;2.70;99.90;;;;;;4993466;28;20235;-85
2022/12/03 05:36:24;;;;;;;23.73;13.13;;;2.70;99.90;;;;;;4996256;28;20534;-84
2022/12/03 05:38:50;;;;;;;28.10;12.60;;;2.70;99.90;;;;;;4996720;28;20485;-85
2022/12/03 05:44:02;;;;;;;28.90;13.30;;;2.70;99.90;;;;;;4977310;28;20928;-84
2022/12/03 05:46:28;;;;;;;30.93;14.50;;;2.80;99.90;;;;;;4995571;28;20493;-84
2022/12/03 05:48:56;;;;;;;29.43;14.67;;;2.80;99.90;;;;;;4997719;28;20457;-85
2022/12/03 05:51:23;;;;;;;32.77;13.67;;;2.80;99.90;;;;;;4998079;28;20518;-82
2022/12/03 05:53:50;;;;;;;30.87;14.80;;;2.70;99.90;;;;;;4999519;28;20474;-83
2022/12/03 05:56:17;;;;;;;25.97;13.83;;;2.70;99.90;;;;;;4999239;28;20425;-83
2022/12/03 05:58:44;;;;;;;30.83;13.67;;;2.70;99.90;;;;;;4999342;28;20461;-86
2022/12/03 06:01:10;;;;;;;30.80;13.57;;;2.70;99.90;;;;;;5000481;28;20464;-84
2022/12/03 06:03:37;;;;;;;27.50;13.93;;;2.80;99.90;;;;;;4998286;28;20533;-84
2022/12/03 06:06:06;;;;;;;23.70;12.60;;;2.70;99.90;;;;;;4998327;28;20468;-84
2022/12/03 06:08:32;;;;;;;26.33;13.27;;;2.80;99.90;;;;;;4999087;28;20458;-85
2022/12/03 06:10:59;;;;;;;26.23;12.87;;;2.80;99.90;;;;;;4998972;28;20433;-82
2022/12/03 06:13:26;;;;;;;29.20;14.77;;;2.80;99.90;;;;;;5000061;28;20433;-85
2022/12/03 06:15:53;;;;;;;30.00;15.23;;;2.80;99.90;;;;;;5002180;28;20952;-83
2022/12/03 06:18:20;;;;;;;35.60;15.73;;;2.80;99.90;;;;;;5001487;28;20514;-84
2022/12/03 06:20:46;;;;;;;30.93;13.47;;;2.70;99.90;;;;;;4998133;28;20436;-84
2022/12/03 06:23:15;;;;;;;26.97;13.70;;;2.80;99.90;;;;;;4995823;28;20533;-83
2022/12/03 06:25:41;;;;;;;30.70;14.47;;;2.70;99.90;;;;;;4996888;28;20474;-83
2022/12/03 06:28:08;;;;;;;24.70;13.13;;;2.70;99.90;;;;;;4994564;28;20451;-84
2022/12/03 06:30:35;;;;;;;31.63;14.80;;;2.70;99.90;;;;;;4996217;28;20439;-83
2022/12/03 06:33:02;;;;;;;30.20;13.60;;;2.60;99.90;;;;;;4996143;28;20455;-84
2022/12/03 06:35:29;;;;;;;30.67;12.80;;;2.60;99.90;;;;;;4995483;28;20482;-84
2022/12/03 06:37:56;;;;;;;27.83;13.23;;;2.60;99.90;;;;;;4996383;28;20985;-84
2022/12/03 06:40:24;;;;;;;24.00;12.30;;;2.60;99.90;;;;;;4996311;28;20954;-82
2022/12/03 06:42:51;;;;;;;29.27;13.10;;;2.60;99.90;;;;;;4996834;28;20450;-83
2022/12/03 06:45:18;;;;;;;28.13;13.47;;;2.70;99.90;;;;;;4995881;28;20810;-83
2022/12/03 06:47:45;;;;;;;23.90;12.83;;;2.70;99.90;;;;;;4995190;28;20489;-82
2022/12/03 06:50:12;;;;;;;31.00;13.37;;;2.70;99.90;;;;;;4997654;28;20468;-83
2022/12/03 06:52:39;;;;;;;28.10;12.80;;;2.70;99.90;;;;;;5000050;28;20454;-85
2022/12/03 06:55:07;;;;;;;28.20;14.37;;;2.70;99.90;;;;;;5002435;28;20498;-84
2022/12/03 06:57:35;;;;;;;32.77;13.30;;;2.60;99.90;;;;;;5001335;28;20990;-84
2022/12/03 07:00:02;;;;;;;23.30;12.30;;;2.60;99.90;;;;;;5002494;28;20457;-84
2022/12/03 07:02:29;;;;;;;30.87;14.80;;;2.70;99.90;;;;;;5002149;28;20461;-85
2022/12/03 07:04:56;;;;;;;29.13;14.10;;;2.70;99.90;;;;;;5003115;28;20535;-86
2022/12/03 07:07:23;;;;;;;32.50;13.40;;;2.60;99.90;;;;;;5003530;28;20482;-84
2022/12/03 07:09:50;;;;;;;28.73;14.23;;;2.60;99.90;;;;;;5002057;28;20500;-84
2022/12/03 07:12:16;;;;;;;30.47;14.10;;;2.60;99.90;;;;;;5003212;28;21005;-85
2022/12/03 07:14:44;;;;;;;31.00;14.33;;;2.60;99.90;;;;;;5004842;28;20582;-85
2022/12/03 07:17:11;;;;;;;26.00;14.40;;;2.50;99.90;;;;;;5003943;28;20435;-83
2022/12/03 07:19:38;;;;;;;29.38;14.05;;;2.40;99.90;;;;;;5015440;28;20421;-84
2022/12/03 07:22:05;;;;;;;34.33;13.73;;;2.40;99.90;;;;;;4997217;28;20204;-83
2022/12/03 07:24:32;;;;;;;24.87;13.90;;;2.40;99.90;;;;;;4986583;28;20246;-79
2022/12/03 07:26:59;;;;;;;29.20;13.80;;;2.50;99.90;;;;;;4989657;28;20852;-79
2022/12/03 07:29:26;;;;;;;23.70;12.97;;;2.50;99.90;;;;;;4991242;28;20432;-78
2022/12/03 07:31:54;;;;;;;30.00;12.50;;;2.60;99.90;;;;;;4992318;28;20549;-80
2022/12/03 07:34:20;;;;;;;28.90;13.23;;;2.50;99.90;;;;;;4990733;28;20456;-79
2022/12/03 07:36:47;;;;;;;26.70;13.67;;;2.50;99.90;;;;;;4992872;28;20525;-77
2022/12/03 07:39:15;;;;;;;28.37;13.33;;;2.50;99.90;;;;;;4989086;28;20454;-79
2022/12/03 07:41:42;;;;;;;24.07;11.70;;;2.50;99.90;;;;;;4992357;28;20465;-79
2022/12/03 07:44:08;;;;;;;31.77;13.50;;;2.60;99.90;;;;;;4989083;28;20466;-81
2022/12/03 07:46:35;;;;;;;29.03;14.10;;;2.70;99.90;;;;;;4994337;28;20491;-81
2022/12/03 07:49:03;;;;;;;32.17;13.07;;;2.60;99.90;;;;;;4997379;28;20458;-80
2022/12/03 07:51:30;;;;;;;23.97;12.80;;;2.60;99.90;;;;;;4996981;28;20472;-81
2022/12/03 07:53:57;;;;;;;28.17;12.23;;;2.70;99.90;;;;;;4991725;28;20456;-82
2022/12/03 07:56:24;;;;;;;27.67;13.63;;;2.70;99.90;;;;;;4993804;28;20824;-79
2022/12/03 07:58:51;;;;;;;22.43;12.83;;;2.80;99.90;;;;;;4995272;28;20461;-82
2022/12/03 08:01:17;;;;;;;30.53;14.60;;;2.70;99.90;;;;;;4988407;28;20461;-84
2022/12/03 08:03:44;;;;;;;24.43;12.77;;;2.70;99.90;;;;;;4997966;28;20486;-81
2022/12/03 08:06:12;;;;;;;27.10;13.70;;;2.80;99.90;;;;;;4982434;28;20459;-81
2022/12/03 08:08:40;;;;;;;27.33;14.77;;;2.90;99.90;;;;;;4996682;28;20466;-81
2022/12/03 08:11:09;;;;;;;29.93;12.67;;;2.90;99.90;;;;;;4997602;28;20847;-81
2022/12/03 08:13:36;;;;;;;23.40;11.27;;;2.70;99.90;;;;;;4998734;28;20533;-81
2022/12/03 08:16:15;;;;;;;29.00;12.40;;;2.70;99.90;;;;;;4997682;28;20469;-82
2022/12/03 08:18:42;;;;;;;28.63;14.97;;;2.70;99.90;;;;;;4997528;28;20458;-81
2022/12/03 08:21:12;;;;;;;29.20;12.27;;;2.70;99.90;;;;;;4997199;28;20841;-80
2022/12/03 08:23:40;;;;;;;36.27;12.40;;;2.60;99.90;;;;;;4996867;28;20218;-81
2022/12/03 08:26:17;;;;;;;27.40;13.03;;;2.60;99.90;;;;;;4992612;28;20459;-81
2022/12/03 08:28:43;;;;;;;24.27;12.70;;;2.70;99.90;;;;;;4992960;28;20454;-81
2022/12/03 08:31:18;;;;;;;26.87;11.90;;;2.70;99.90;;;;;;4990729;28;20425;-80
2022/12/03 08:33:46;;;;;;;21.83;11.10;;;2.70;99.90;;;;;;4995114;28;20935;-81
2022/12/03 08:36:19;;;;;;;23.43;11.70;;;2.80;99.90;;;;;;4993137;28;20447;-82
2022/12/03 08:38:51;;;;;;;28.33;13.70;;;2.70;99.90;;;;;;4997859;28;20450;-80
2022/12/03 08:42:40;;;;;;;27.60;13.17;;;2.70;99.90;;;;;;4999345;28;20461;-81
2022/12/03 08:44:19;;;;;;;26.07;12.27;;;2.70;99.90;;;;;;4998713;28;20478;-82
2022/12/03 08:46:50;;;;;;;28.40;13.90;;;2.70;99.90;;;;;;4998656;28;20488;-81
2022/12/03 08:49:17;;;;;;;33.30;14.70;;;2.80;99.90;;;;;;4997803;28;20844;-81
2022/12/03 08:51:45;;;;;;;32.03;14.50;;;2.80;99.90;;;;;;4997014;28;20558;-82
2022/12/03 08:54:18;;;;;;;32.50;14.37;;;2.70;99.90;;;;;;4997234;28;20490;-81
2022/12/03 08:56:45;;;;;;;31.97;12.23;;;2.70;99.90;;;;;;4998214;28;20450;-81
2022/12/03 08:59:31;;;;;;;34.13;14.83;;;2.80;99.90;;;;;;4996410;28;20446;-81
2022/12/03 09:01:59;;;;;;;26.48;13.82;;;2.70;99.90;;;;;;4998518;28;21027;-81
2022/12/03 09:04:35;;;;;;;32.87;15.47;;;2.70;99.90;;;;;;4999031;28;20682;-82
2022/12/03 09:07:04;;;;;;;28.80;14.83;;;2.70;99.90;;;;;;4999330;28;20481;-82
2022/12/03 09:09:32;;;;;;;30.87;15.60;;;2.70;99.90;;;;;;4999685;28;20844;-82
2022/12/03 09:12:00;;;;;;;28.77;12.57;;;2.80;99.90;;;;;;4999623;28;20521;-80
2022/12/03 09:14:28;;;;;;;29.53;14.67;;;2.70;99.90;;;;;;5000268;28;20467;-82
2022/12/03 09:16:55;;;;;;;29.92;14.13;;;2.80;99.90;;;;;;4999342;28;20447;-82
2022/12/03 09:19:23;;;;;;;29.30;14.90;;;2.80;99.90;;;;;;4999238;28;20207;-82
2022/12/03 09:21:49;;;;;;;28.83;15.43;;;2.80;99.90;;;;;;5001588;28;20516;-82
2022/12/03 09:24:18;;;;;;;26.67;13.40;;;2.80;99.90;;;;;;5000657;28;20449;-82
2022/12/03 09:26:44;;;;;;;30.02;13.07;;;2.80;99.90;;;;;;4988245;28;20479;-82
2022/12/03 09:29:11;;;;;;;30.57;14.00;;;2.90;99.90;;;;;;5002660;28;20411;-82
2022/12/03 09:31:38;;;;;;;29.07;13.03;;;3.00;99.90;;;;;;5011696;28;20525;-82
2022/12/03 09:34:06;;;;;;;31.50;13.70;;;3.00;99.90;;;;;;5001802;28;20470;-81
2022/12/03 09:36:33;;;;;;;30.43;14.60;;;3.00;99.90;;;;;;4996027;28;20966;-81
2022/12/03 09:39:00;;;;;;;29.57;13.20;;;3.10;99.90;;;;;;4995632;28;20455;-80
2022/12/03 09:41:29;;;;;;;28.27;14.30;;;3.20;99.90;;;;;;4995618;28;20455;-82
2022/12/03 09:43:56;;;;;;;32.77;13.80;;;3.20;99.90;;;;;;4985745;28;20476;-81
2022/12/03 09:46:23;;;;;;;28.97;14.83;;;3.20;99.90;;;;;;4996812;28;20959;-81
2022/12/03 09:48:51;;;;;;;19.90;11.03;;;3.20;99.90;;;;;;4995049;28;20461;-80
2022/12/03 09:51:18;;;;;;;32.93;14.53;;;3.10;99.90;;;;;;4994906;28;20491;-81
2022/12/03 09:53:46;;;;;;;25.80;13.17;;;3.30;99.90;;;;;;4994465;28;20514;-81
2022/12/03 09:56:20;;;;;;;28.77;15.17;;;3.10;99.90;;;;;;4995554;28;20461;-81
2022/12/03 09:58:49;;;;;;;30.93;13.90;;;3.20;99.90;;;;;;4994026;28;20461;-80
2022/12/03 10:01:17;;;;;;;28.23;13.83;;;3.30;99.90;;;;;;4996680;28;20458;-81
2022/12/03 10:03:47;;;;;;;24.10;12.33;;;3.30;99.90;;;;;;4996173;28;20549;-81
2022/12/03 10:06:17;;;;;;;24.07;13.20;;;3.30;99.90;;;;;;5014927;28;20513;-81
2022/12/03 10:08:47;;;;;;;23.77;13.70;;;3.40;99.90;;;;;;5014802;28;20467;-82
2022/12/03 10:11:14;;;;;;;27.80;15.33;;;3.50;99.90;;;;;;5012076;28;20429;-82
2022/12/03 10:13:41;;;;;;;24.23;13.07;;;3.40;99.90;;;;;;5009801;28;20491;-81
2022/12/03 10:16:14;;;;;;;28.83;15.60;;;3.50;99.90;;;;;;5004894;28;20520;-83
2022/12/03 10:18:42;;;;;;;26.13;13.37;;;3.60;99.90;;;;;;4999350;28;20459;-83
2022/12/03 10:21:16;;;;;;;25.33;14.70;;;3.70;99.90;;;;;;5000613;28;20450;-83
2022/12/03 10:23:44;;;;;;;28.00;12.90;;;3.70;99.90;;;;;;5000793;28;20470;-83
2022/12/03 10:26:11;;;;;;;21.77;12.63;;;3.80;99.90;;;;;;5000335;28;20447;-82
2022/12/03 10:28:39;;;;;;;23.17;12.63;;;3.80;99.90;;;;;;4999344;28;20490;-82
2022/12/03 10:31:09;;;;;;;27.93;14.40;;;3.60;99.90;;;;;;4998386;28;20541;-82
2022/12/03 10:33:39;;;;;;;30.53;14.10;;;3.60;99.90;;;;;;4995194;28;20522;-81
2022/12/03 10:36:18;;;;;;;26.90;14.23;;;3.60;99.90;;;;;;5028931;23;20938;-79
2022/12/03 10:38:45;;;;;;;29.50;14.37;;;3.60;99.90;;;;;;5021649;28;20496;-79
2022/12/03 10:41:29;;;;;;;24.80;13.10;;;3.60;99.90;;;;;;5019436;28;20952;-78
2022/12/03 10:44:13;;;;;;;26.97;14.40;;;3.70;99.90;;;;;;5022859;28;20513;-80
2022/12/03 10:46:40;;;;;;;33.20;15.97;;;3.60;99.90;;;;;;5010645;28;20470;-79
2022/12/03 10:49:15;;;;;;;28.57;15.60;;;3.50;99.90;;;;;;5016911;28;20489;-80
2022/12/03 10:51:43;;;;;;;32.00;16.57;;;3.60;99.90;;;;;;5018875;28;20449;-80
2022/12/03 10:54:16;;;;;;;26.23;15.37;;;3.60;99.90;;;;;;5019945;28;20432;-80
2022/12/03 10:56:44;;;;;;;30.40;15.13;;;3.40;99.90;;;;;;5019508;28;20535;-80
2022/12/03 10:59:15;;;;;;;27.57;14.90;;;3.60;99.90;;;;;;5022236;28;22192;-80
2022/12/03 11:01:42;;;;;;;26.73;13.93;;;3.60;99.90;;;;;;5021210;28;20476;-81
2022/12/03 11:04:20;;;;;;;24.60;12.33;;;3.60;99.90;;;;;;5017383;28;20452;-80
2022/12/03 11:06:47;;;;;;;30.90;15.90;;;3.60;99.90;;;;;;5022553;28;20470;-80
2022/12/03 11:09:18;;;;;;;26.13;13.50;;;3.60;99.90;;;;;;5020510;28;20453;-79
2022/12/03 11:11:45;;;;;;;29.20;14.73;;;3.60;99.90;;;;;;5023699;28;20453;-80
2022/12/03 11:14:12;;;;;;;31.40;15.40;;;3.60;99.90;;;;;;5029220;28;20521;-80
2022/12/03 11:17:07;;;;;;;26.57;14.20;;;3.70;99.90;;;;;;5024989;28;20493;-80
2022/12/03 11:19:51;;;;;;;24.47;13.77;;;3.70;99.90;;;;;;5030012;28;20456;-80
2022/12/03 11:22:39;;;;;;;24.77;12.67;;;3.70;99.90;;;;;;5023413;28;20532;-80
2022/12/03 11:25:55;;;;;;;25.83;13.17;;;3.60;99.90;;;;;;5016670;28;21184;-81
2022/12/03 11:28:51;;;;;;;24.10;13.83;;;3.60;99.90;;;;;;5018500;28;20919;-79
2022/12/03 11:31:40;;;;;;;25.47;14.17;;;3.40;99.90;;;;;;5016531;28;20454;-80
2022/12/03 11:34:49;;;;;;;27.23;12.53;;;3.30;99.90;;;;;;5017767;28;20484;-80
2022/12/03 11:37:27;;;;;;;27.00;13.70;;;3.20;99.90;;;;;;5009746;28;20459;-79
2022/12/03 11:40:31;;;;;;;23.80;12.60;;;3.30;99.90;;;;;;5011407;28;20449;-80
2022/12/03 11:42:58;;;;;;;27.87;13.60;;;3.30;99.90;;;;;;5017773;28;20527;-78
2022/12/03 11:45:34;;;;;;;29.53;14.63;;;3.20;99.90;;;;;;5019300;28;20445;-79
2022/12/03 11:48:13;;;;;;;26.50;13.70;;;3.20;99.90;;;;;;5018057;28;20491;-79
2022/12/03 11:50:42;;;;;;;28.27;13.53;;;3.30;99.90;;;;;;5021188;28;20459;-79
2022/12/03 11:53:15;;;;;;;28.40;14.87;;;3.30;99.90;;;;;;5021364;28;20458;-80
2022/12/03 11:55:46;;;;;;;25.47;13.57;;;3.40;99.90;;;;;;5021826;28;20549;-78
2022/12/03 11:58:18;;;;;;;28.03;14.87;;;3.50;99.90;;;;;;5028397;28;20479;-80
2022/12/03 12:00:50;;;;;;;28.00;14.40;;;3.30;99.90;;;;;;5022164;28;20453;-79
2022/12/03 12:03:28;;;;;;;29.10;14.50;;;3.40;99.90;;;;;;5019864;28;20457;-80
2022/12/03 12:06:02;;;;;;;30.50;14.60;;;3.40;99.90;;;;;;5019117;28;20973;-80
2022/12/03 12:08:31;;;;;;;28.60;13.30;;;3.60;99.90;;;;;;5023386;28;20520;-79
2022/12/03 12:10:58;;;;;;;27.93;15.30;;;3.70;99.90;;;;;;5018493;28;20460;-80
2022/12/03 12:13:50;;;;;;;26.43;14.70;;;3.70;99.90;;;;;;5018465;28;20449;-80
2022/12/03 12:16:35;;;;;;;28.03;15.33;;;3.80;99.90;;;;;;5011317;28;20476;-80
2022/12/03 12:19:27;;;;;;;26.40;15.13;;;3.70;99.90;;;;;;5021037;28;20532;-80
2022/12/03 12:21:55;;;;;;;25.37;13.43;;;3.70;99.90;;;;;;5016308;28;20574;-80
2022/12/03 12:24:31;;;;;;;28.53;15.03;;;3.70;99.90;;;;;;5019701;28;20529;-78
2022/12/03 12:27:00;;;;;;;32.60;15.20;;;3.60;99.90;;;;;;5021703;28;20553;-78
2022/12/03 12:29:27;;;;;;;25.60;14.60;;;3.80;99.90;;;;;;5024898;28;20494;-79
2022/12/03 12:31:59;;;;;;;24.20;15.67;;;3.70;99.90;;;;;;5016841;28;20450;-80
2022/12/03 12:34:26;;;;;;;30.97;15.80;;;3.70;99.90;;;;;;5016838;28;20450;-80
2022/12/03 12:36:55;;;;;;;31.70;14.40;;;3.70;99.90;;;;;;5016345;28;20460;-79
2022/12/03 12:39:22;;;;;;;27.77;15.03;;;3.70;99.90;;;;;;5019244;28;20450;-80
2022/12/03 12:41:51;;;;;;;26.67;15.07;;;3.70;99.90;;;;;;5024774;28;20456;-80
2022/12/03 12:44:22;;;;;;;35.50;15.10;;;3.70;99.90;;;;;;5018875;28;20450;-80
2022/12/03 12:46:52;;;;;;;28.90;15.83;;;3.70;99.90;;;;;;5019543;28;20474;-80
2022/12/03 12:49:25;;;;;;;28.70;14.77;;;3.50;99.90;;;;;;5016506;28;20568;-80
2022/12/03 12:51:52;;;;;;;26.70;16.17;;;3.50;99.90;;;;;;5017047;28;20496;-80
2022/12/03 12:54:19;;;;;;;36.67;15.50;;;3.40;99.90;;;;;;5018183;28;20532;-80
2022/12/03 12:56:48;;;;;;;27.40;14.77;;;3.40;99.90;;;;;;5020194;28;20474;-79
2022/12/03 12:59:19;;;;;;;33.63;17.03;;;3.50;99.90;;;;;;5026614;28;20977;-81
2022/12/03 13:01:48;;;;;;;36.30;17.03;;;3.50;99.90;;;;;;5017775;28;20528;-80
2022/12/03 13:04:17;;;;;;;28.30;13.23;;;3.50;99.90;;;;;;5016742;28;20458;-80
2022/12/03 13:06:44;;;;;;;23.97;13.87;;;3.50;99.90;;;;;;5017325;28;20476;-81